createdAt,value
2023-07-03T00:00:00.000Z,15.65
2023-07-03T00:15:00.000Z,15.06
2023-07-03T00:30:00.000Z,15.38
2023-07-03T00:45:00.000Z,16.26
2023-07-03T01:00:00.000Z,25.24
2023-07-03T01:15:00.000Z,29.21
2023-07-03T01:30:00.000Z,30.58
2023-07-03T01:45:00.000Z,24.68
2023-07-03T02:00:00.000Z,21.66
2023-07-03T02:15:00.000Z,22.21
2023-07-03T02:30:00.000Z,22.88
2023-07-03T02:45:00.000Z,22
2023-07-03T03:00:00.000Z,21.79
2023-07-03T03:15:00.000Z,21.09
2023-07-03T03:30:00.000Z,20.34
2023-07-03T03:45:00.000Z,19.62
2023-07-03T04:00:00.000Z,19.31
2023-07-03T04:15:00.000Z,19.94
2023-07-03T04:30:00.000Z,18.95
2023-07-03T04:45:00.000Z,18.65
2023-07-03T05:00:00.000Z,19.92
2023-07-03T05:15:00.000Z,20.49
2023-07-03T05:30:00.000Z,20.59
2023-07-03T05:45:00.000Z,20.52
2023-07-03T06:00:00.000Z,21.67
2023-07-03T06:15:00.000Z,22.99
2023-07-03T06:30:00.000Z,27.59
2023-07-03T06:45:00.000Z,32.49
2023-07-03T07:00:00.000Z,33.29
2023-07-03T07:15:00.000Z,35.24
2023-07-03T07:30:00.000Z,31.49
2023-07-03T07:45:00.000Z,35.56
2023-07-03T08:00:00.000Z,35.47
2023-07-03T08:15:00.000Z,33.66
2023-07-03T08:30:00.000Z,33.08
2023-07-03T08:45:00.000Z,30.96
2023-07-03T09:00:00.000Z,28.04
2023-07-03T09:15:00.000Z,31.58
2023-07-03T09:30:00.000Z,31.11
2023-07-03T09:45:00.000Z,25.42
2023-07-03T10:00:00.000Z,22.28
2023-07-03T10:15:00.000Z,21.68
2023-07-03T10:30:00.000Z,22.54
2023-07-03T10:45:00.000Z,23.87
2023-07-03T11:00:00.000Z,26.8
2023-07-03T11:15:00.000Z,26.96
2023-07-03T11:30:00.000Z,25
2023-07-03T11:45:00.000Z,23.34
2023-07-03T12:00:00.000Z,22.27
2023-07-03T12:15:00.000Z,23.55
2023-07-03T12:30:00.000Z,24.98
2023-07-03T12:45:00.000Z,24.13
2023-07-03T13:00:00.000Z,22.42
2023-07-03T13:15:00.000Z,20.94
2023-07-03T13:30:00.000Z,23.02
2023-07-03T13:45:00.000Z,22.29
2023-07-03T14:00:00.000Z,23.22
2023-07-03T14:15:00.000Z,22.21
2023-07-03T14:30:00.000Z,21.69
2023-07-03T14:45:00.000Z,22.14
2023-07-03T15:00:00.000Z,22.92
2023-07-03T15:15:00.000Z,22.45
2023-07-03T15:30:00.000Z,22.16
2023-07-03T15:45:00.000Z,21.54
2023-07-03T16:00:00.000Z,22.52
2023-07-03T16:15:00.000Z,21.39
2023-07-03T16:30:00.000Z,21.92
2023-07-03T16:45:00.000Z,22.82
2023-07-03T17:00:00.000Z,23.81
2023-07-03T17:15:00.000Z,23.69
2023-07-03T17:30:00.000Z,24.05
2023-07-03T17:45:00.000Z,24.58
2023-07-03T18:00:00.000Z,24.85
2023-07-03T18:15:00.000Z,25.55
2023-07-03T18:30:00.000Z,26.35
2023-07-03T18:45:00.000Z,26.02
2023-07-03T19:00:00.000Z,25.81
2023-07-03T19:15:00.000Z,26.68
2023-07-03T19:30:00.000Z,27.45
2023-07-03T19:45:00.000Z,27.6
2023-07-03T20:00:00.000Z,27.66
2023-07-03T20:15:00.000Z,27.76
2023-07-03T20:30:00.000Z,27.82
2023-07-03T20:45:00.000Z,29.12
2023-07-03T21:00:00.000Z,29.02
2023-07-03T21:15:00.000Z,28.56
2023-07-03T21:30:00.000Z,28.87
2023-07-03T21:45:00.000Z,28.59
2023-07-03T22:00:00.000Z,29.4
2023-07-03T22:15:00.000Z,30.62
2023-07-03T22:30:00.000Z,29.72
2023-07-03T22:45:00.000Z,29.42
2023-07-03T23:00:00.000Z,29.02
2023-07-03T23:15:00.000Z,28.66
2023-07-03T23:30:00.000Z,28.66
2023-07-03T23:45:00.000Z,28.61
